sensor_id;sensor_type;location;lat;lon;timestamp;P1;durP1;ratioP1;P2;durP2;ratioP2
44862;SDS011;30597;49.628;10.850;2023-05-02T00:01:55;2.70;;;2.40;;
44862;SDS011;30597;49.628;10.850;2023-05-02T00:04:21;2.50;;;2.30;;
44862;SDS011;30597;49.628;10.850;2023-05-02T00:06:47;3.37;;;2.60;;
44862;SDS011;30597;49.628;10.850;2023-05-02T00:09:12;2.70;;;2.50;;
44862;SDS011;30597;49.628;10.850;2023-05-02T00:11:39;3.60;;;2.70;;
44862;SDS011;30597;49.628;10.850;2023-05-02T00:14:05;2.83;;;2.63;;
44862;SDS011;30597;49.628;10.850;2023-05-02T00:16:30;2.97;;;2.77;;
44862;SDS011;30597;49.628;10.850;2023-05-02T00:18:56;2.93;;;2.73;;
44862;SDS011;30597;49.628;10.850;2023-05-02T00:21:21;2.50;;;2.30;;
44862;SDS011;30597;49.628;10.850;2023-05-02T00:23:47;2.60;;;2.40;;
44862;SDS011;30597;49.628;10.850;2023-05-02T00:26:12;3.57;;;3.17;;
44862;SDS011;30597;49.628;10.850;2023-05-02T00:28:38;2.53;;;2.33;;
44862;SDS011;30597;49.628;10.850;2023-05-02T00:31:04;3.30;;;3.00;;
44862;SDS011;30597;49.628;10.850;2023-05-02T00:33:30;3.17;;;2.27;;
44862;SDS011;30597;49.628;10.850;2023-05-02T00:35:55;5.80;;;2.60;;
44862;SDS011;30597;49.628;10.850;2023-05-02T00:38:21;4.10;;;2.50;;
44862;SDS011;30597;49.628;10.850;2023-05-02T00:40:47;2.50;;;2.30;;
44862;SDS011;30597;49.628;10.850;2023-05-02T00:43:15;2.57;;;2.37;;
44862;SDS011;30597;49.628;10.850;2023-05-02T00:45:41;3.77;;;2.33;;
44862;SDS011;30597;49.628;10.850;2023-05-02T00:48:08;2.77;;;2.57;;
44862;SDS011;30597;49.628;10.850;2023-05-02T00:50:38;3.43;;;3.23;;
44862;SDS011;30597;49.628;10.850;2023-05-02T00:53:05;3.17;;;2.60;;
44862;SDS011;30597;49.628;10.850;2023-05-02T00:55:32;2.60;;;2.40;;
44862;SDS011;30597;49.628;10.850;2023-05-02T00:57:59;3.40;;;2.80;;
44862;SDS011;30597;49.628;10.850;2023-05-02T01:00:28;2.97;;;2.70;;
44862;SDS011;30597;49.628;10.850;2023-05-02T01:06:18;2.30;;;2.10;;
44862;SDS011;30597;49.628;10.850;2023-05-02T01:14:15;2.83;;;2.63;;
44862;SDS011;30597;49.628;10.850;2023-05-02T01:16:42;2.53;;;2.30;;
44862;SDS011;30597;49.628;10.850;2023-05-02T01:19:30;2.50;;;2.30;;
44862;SDS011;30597;49.628;10.850;2023-05-02T01:22:00;2.70;;;2.50;;
44862;SDS011;30597;49.628;10.850;2023-05-02T01:24:29;2.70;;;2.50;;
44862;SDS011;30597;49.628;10.850;2023-05-02T01:27:03;2.33;;;2.17;;
44862;SDS011;30597;49.628;10.850;2023-05-02T01:29:39;3.70;;;2.53;;
44862;SDS011;30597;49.628;10.850;2023-05-02T01:32:06;2.60;;;2.40;;
44862;SDS011;30597;49.628;10.850;2023-05-02T01:34:34;3.13;;;2.83;;
44862;SDS011;30597;49.628;10.850;2023-05-02T01:37:02;2.33;;;2.23;;
44862;SDS011;30597;49.628;10.850;2023-05-02T01:39:29;2.40;;;2.20;;
44862;SDS011;30597;49.628;10.850;2023-05-02T01:41:56;2.90;;;2.33;;
44862;SDS011;30597;49.628;10.850;2023-05-02T01:44:26;3.10;;;2.60;;
44862;SDS011;30597;49.628;10.850;2023-05-02T01:46:54;2.50;;;2.03;;
44862;SDS011;30597;49.628;10.850;2023-05-02T01:49:22;7.40;;;2.10;;
44862;SDS011;30597;49.628;10.850;2023-05-02T01:51:49;2.30;;;2.13;;
44862;SDS011;30597;49.628;10.850;2023-05-02T01:54:17;3.73;;;2.50;;
44862;SDS011;30597;49.628;10.850;2023-05-02T01:56:45;2.50;;;2.30;;
44862;SDS011;30597;49.628;10.850;2023-05-02T01:59:14;3.80;;;2.40;;
44862;SDS011;30597;49.628;10.850;2023-05-02T02:01:44;2.33;;;2.10;;
44862;SDS011;30597;49.628;10.850;2023-05-02T02:04:11;2.10;;;1.93;;
44862;SDS011;30597;49.628;10.850;2023-05-02T02:06:39;2.33;;;2.13;;
44862;SDS011;30597;49.628;10.850;2023-05-02T02:09:09;2.93;;;2.50;;
44862;SDS011;30597;49.628;10.850;2023-05-02T02:11:36;2.50;;;2.30;;
44862;SDS011;30597;49.628;10.850;2023-05-02T02:14:11;2.33;;;2.13;;
44862;SDS011;30597;49.628;10.850;2023-05-02T02:16:46;3.13;;;2.10;;
44862;SDS011;30597;49.628;10.850;2023-05-02T02:19:13;2.27;;;2.10;;
44862;SDS011;30597;49.628;10.850;2023-05-02T02:21:41;2.80;;;2.10;;
44862;SDS011;30597;49.628;10.850;2023-05-02T02:24:08;2.70;;;2.50;;
44862;SDS011;30597;49.628;10.850;2023-05-02T02:26:35;2.20;;;2.00;;
44862;SDS011;30597;49.628;10.850;2023-05-02T02:29:02;2.50;;;2.30;;
44862;SDS011;30597;49.628;10.850;2023-05-02T02:31:31;2.13;;;1.93;;
44862;SDS011;30597;49.628;10.850;2023-05-02T02:33:58;3.00;;;2.40;;
44862;SDS011;30597;49.628;10.850;2023-05-02T02:36:27;2.50;;;2.30;;
44862;SDS011;30597;49.628;10.850;2023-05-02T02:39:06;2.00;;;1.90;;
44862;SDS011;30597;49.628;10.850;2023-05-02T02:47:41;2.20;;;2.10;;
44862;SDS011;30597;49.628;10.850;2023-05-02T02:50:19;2.63;;;2.43;;
44862;SDS011;30597;49.628;10.850;2023-05-02T02:52:57;2.80;;;2.13;;
44862;SDS011;30597;49.628;10.850;2023-05-02T03:00:39;2.30;;;2.10;;
44862;SDS011;30597;49.628;10.850;2023-05-02T03:03:06;2.10;;;2.00;;
44862;SDS011;30597;49.628;10.850;2023-05-02T03:05:32;2.10;;;1.90;;
44862;SDS011;30597;49.628;10.850;2023-05-02T03:07:58;2.27;;;2.10;;
44862;SDS011;30597;49.628;10.850;2023-05-02T03:10:24;2.10;;;1.90;;
44862;SDS011;30597;49.628;10.850;2023-05-02T03:12:50;2.13;;;1.93;;
44862;SDS011;30597;49.628;10.850;2023-05-02T03:18:15;2.10;;;1.90;;
44862;SDS011;30597;49.628;10.850;2023-05-02T03:20:41;2.07;;;1.97;;
44862;SDS011;30597;49.628;10.850;2023-05-02T03:23:06;1.77;;;1.67;;
44862;SDS011;30597;49.628;10.850;2023-05-02T03:25:32;2.60;;;2.20;;
44862;SDS011;30597;49.628;10.850;2023-05-02T03:27:57;2.07;;;1.87;;
44862;SDS011;30597;49.628;10.850;2023-05-02T03:30:23;2.00;;;1.90;;
44862;SDS011;30597;49.628;10.850;2023-05-02T03:32:48;1.80;;;1.70;;
44862;SDS011;30597;49.628;10.850;2023-05-02T03:35:14;2.60;;;2.20;;
44862;SDS011;30597;49.628;10.850;2023-05-02T03:37:40;2.23;;;2.03;;
44862;SDS011;30597;49.628;10.850;2023-05-02T03:40:06;2.23;;;2.00;;
44862;SDS011;30597;49.628;10.850;2023-05-02T03:42:33;2.50;;;2.20;;
44862;SDS011;30597;49.628;10.850;2023-05-02T03:45:04;2.10;;;1.90;;
44862;SDS011;30597;49.628;10.850;2023-05-02T03:47:34;2.40;;;2.20;;
44862;SDS011;30597;49.628;10.850;2023-05-02T03:49:59;2.47;;;2.27;;
44862;SDS011;30597;49.628;10.850;2023-05-02T03:52:26;2.37;;;2.00;;
44862;SDS011;30597;49.628;10.850;2023-05-02T03:54:52;2.27;;;2.07;;
44862;SDS011;30597;49.628;10.850;2023-05-02T03:57:18;2.20;;;2.00;;
44862;SDS011;30597;49.628;10.850;2023-05-02T03:59:43;1.90;;;1.80;;
44862;SDS011;30597;49.628;10.850;2023-05-02T04:02:12;2.27;;;2.07;;
44862;SDS011;30597;49.628;10.850;2023-05-02T04:04:37;2.13;;;2.03;;
44862;SDS011;30597;49.628;10.850;2023-05-02T04:07:05;1.80;;;1.70;;
44862;SDS011;30597;49.628;10.850;2023-05-02T04:09:39;1.77;;;1.67;;
44862;SDS011;30597;49.628;10.850;2023-05-02T04:12:05;1.87;;;1.77;;
44862;SDS011;30597;49.628;10.850;2023-05-02T04:14:30;2.00;;;1.90;;
44862;SDS011;30597;49.628;10.850;2023-05-02T04:16:56;2.00;;;1.90;;
44862;SDS011;30597;49.628;10.850;2023-05-02T04:19:21;1.83;;;1.73;;
44862;SDS011;30597;49.628;10.850;2023-05-02T04:21:47;2.37;;;2.17;;
44862;SDS011;30597;49.628;10.850;2023-05-02T04:24:12;2.50;;;1.97;;
44862;SDS011;30597;49.628;10.850;2023-05-02T04:26:38;1.90;;;1.80;;
44862;SDS011;30597;49.628;10.850;2023-05-02T04:29:04;1.90;;;1.80;;
44862;SDS011;30597;49.628;10.850;2023-05-02T04:31:30;2.17;;;1.93;;
44862;SDS011;30597;49.628;10.850;2023-05-02T04:33:56;1.80;;;1.70;;
44862;SDS011;30597;49.628;10.850;2023-05-02T04:36:22;2.70;;;2.50;;
44862;SDS011;30597;49.628;10.850;2023-05-02T04:38:48;2.37;;;2.17;;
44862;SDS011;30597;49.628;10.850;2023-05-02T04:41:14;4.00;;;2.70;;
44862;SDS011;30597;49.628;10.850;2023-05-02T04:43:40;3.23;;;3.00;;
44862;SDS011;30597;49.628;10.850;2023-05-02T04:46:05;3.90;;;2.67;;
44862;SDS011;30597;49.628;10.850;2023-05-02T04:48:31;4.40;;;2.50;;
44862;SDS011;30597;49.628;10.850;2023-05-02T04:50:57;2.47;;;2.27;;
44862;SDS011;30597;49.628;10.850;2023-05-02T04:53:23;3.10;;;2.70;;
44862;SDS011;30597;49.628;10.850;2023-05-02T04:55:48;3.10;;;2.80;;
44862;SDS011;30597;49.628;10.850;2023-05-02T04:58:14;3.33;;;3.03;;
44862;SDS011;30597;49.628;10.850;2023-05-02T05:00:40;2.90;;;2.50;;
44862;SDS011;30597;49.628;10.850;2023-05-02T05:03:06;3.53;;;3.23;;
44862;SDS011;30597;49.628;10.850;2023-05-02T05:05:32;2.70;;;2.50;;
44862;SDS011;30597;49.628;10.850;2023-05-02T05:07:57;4.27;;;2.80;;
44862;SDS011;30597;49.628;10.850;2023-05-02T05:10:23;3.50;;;3.20;;
44862;SDS011;30597;49.628;10.850;2023-05-02T05:12:52;2.67;;;2.40;;
44862;SDS011;30597;49.628;10.850;2023-05-02T05:15:28;3.03;;;2.73;;
44862;SDS011;30597;49.628;10.850;2023-05-02T05:17:58;2.60;;;2.40;;
44862;SDS011;30597;49.628;10.850;2023-05-02T05:20:29;2.43;;;2.23;;
44862;SDS011;30597;49.628;10.850;2023-05-02T05:23:00;3.47;;;2.60;;
44862;SDS011;30597;49.628;10.850;2023-05-02T05:25:26;2.83;;;2.63;;
44862;SDS011;30597;49.628;10.850;2023-05-02T05:27:52;2.83;;;2.63;;
44862;SDS011;30597;49.628;10.850;2023-05-02T05:30:21;2.83;;;2.63;;
44862;SDS011;30597;49.628;10.850;2023-05-02T05:32:47;2.83;;;2.63;;
44862;SDS011;30597;49.628;10.850;2023-05-02T05:35:14;3.50;;;2.70;;
44862;SDS011;30597;49.628;10.850;2023-05-02T05:37:41;2.70;;;2.50;;
44862;SDS011;30597;49.628;10.850;2023-05-02T05:40:07;2.70;;;2.50;;
44862;SDS011;30597;49.628;10.850;2023-05-02T05:42:37;2.97;;;2.67;;
44862;SDS011;30597;49.628;10.850;2023-05-02T05:45:08;2.83;;;2.63;;
44862;SDS011;30597;49.628;10.850;2023-05-02T05:47:34;2.60;;;2.40;;
44862;SDS011;30597;49.628;10.850;2023-05-02T05:50:19;2.17;;;1.97;;
44862;SDS011;30597;49.628;10.850;2023-05-02T05:52:49;2.80;;;2.60;;
44862;SDS011;30597;49.628;10.850;2023-05-02T05:55:15;2.70;;;2.50;;
44862;SDS011;30597;49.628;10.850;2023-05-02T05:57:40;3.60;;;3.10;;
44862;SDS011;30597;49.628;10.850;2023-05-02T06:00:10;2.93;;;2.73;;
44862;SDS011;30597;49.628;10.850;2023-05-02T06:02:41;3.23;;;2.93;;
44862;SDS011;30597;49.628;10.850;2023-05-02T06:05:07;2.83;;;2.63;;
44862;SDS011;30597;49.628;10.850;2023-05-02T06:07:33;5.23;;;3.60;;
44862;SDS011;30597;49.628;10.850;2023-05-02T06:09:58;3.60;;;3.30;;
44862;SDS011;30597;49.628;10.850;2023-05-02T06:12:24;9.93;;;4.90;;
44862;SDS011;30597;49.628;10.850;2023-05-02T06:14:50;8.40;;;3.97;;
44862;SDS011;30597;49.628;10.850;2023-05-02T06:17:22;12.50;;;4.10;;
44862;SDS011;30597;49.628;10.850;2023-05-02T06:19:55;21.73;;;5.37;;
44862;SDS011;30597;49.628;10.850;2023-05-02T06:22:22;21.67;;;5.53;;
44862;SDS011;30597;49.628;10.850;2023-05-02T06:24:48;13.57;;;5.07;;
44862;SDS011;30597;49.628;10.850;2023-05-02T06:27:13;8.80;;;4.87;;
44862;SDS011;30597;49.628;10.850;2023-05-02T06:29:44;5.33;;;4.40;;
44862;SDS011;30597;49.628;10.850;2023-05-02T06:32:09;7.67;;;4.40;;
44862;SDS011;30597;49.628;10.850;2023-05-02T06:34:35;8.93;;;4.40;;
44862;SDS011;30597;49.628;10.850;2023-05-02T06:37:00;6.60;;;4.10;;
44862;SDS011;30597;49.628;10.850;2023-05-02T06:39:27;7.83;;;3.90;;
44862;SDS011;30597;49.628;10.850;2023-05-02T06:41:56;4.50;;;4.10;;
44862;SDS011;30597;49.628;10.850;2023-05-02T06:44:23;5.73;;;3.80;;
44862;SDS011;30597;49.628;10.850;2023-05-02T06:46:56;6.97;;;3.80;;
44862;SDS011;30597;49.628;10.850;2023-05-02T06:49:25;5.10;;;4.13;;
44862;SDS011;30597;49.628;10.850;2023-05-02T06:51:52;4.20;;;3.80;;
44862;SDS011;30597;49.628;10.850;2023-05-02T06:54:23;6.57;;;4.00;;
44862;SDS011;30597;49.628;10.850;2023-05-02T06:56:54;7.10;;;3.70;;
44862;SDS011;30597;49.628;10.850;2023-05-02T06:59:23;6.33;;;4.17;;
44862;SDS011;30597;49.628;10.850;2023-05-02T07:01:58;4.00;;;3.63;;
44862;SDS011;30597;49.628;10.850;2023-05-02T07:04:24;4.90;;;3.83;;
44862;SDS011;30597;49.628;10.850;2023-05-02T07:06:54;6.50;;;4.30;;
44862;SDS011;30597;49.628;10.850;2023-05-02T07:09:21;6.70;;;4.60;;
44862;SDS011;30597;49.628;10.850;2023-05-02T07:11:48;9.33;;;3.80;;
44862;SDS011;30597;49.628;10.850;2023-05-02T07:14:18;4.80;;;4.33;;
44862;SDS011;30597;49.628;10.850;2023-05-02T07:16:44;6.60;;;3.80;;
44862;SDS011;30597;49.628;10.850;2023-05-02T07:19:16;5.10;;;4.00;;
44862;SDS011;30597;49.628;10.850;2023-05-02T07:21:45;5.57;;;4.40;;
44862;SDS011;30597;49.628;10.850;2023-05-02T07:24:12;3.77;;;3.43;;
44862;SDS011;30597;49.628;10.850;2023-05-02T07:26:37;4.80;;;4.33;;
44862;SDS011;30597;49.628;10.850;2023-05-02T07:29:03;5.83;;;3.93;;
44862;SDS011;30597;49.628;10.850;2023-05-02T07:31:30;6.20;;;4.80;;
44862;SDS011;30597;49.628;10.850;2023-05-02T07:33:56;6.50;;;4.37;;
44862;SDS011;30597;49.628;10.850;2023-05-02T07:36:21;5.37;;;4.40;;
44862;SDS011;30597;49.628;10.850;2023-05-02T07:38:47;4.40;;;4.00;;
44862;SDS011;30597;49.628;10.850;2023-05-02T07:41:12;4.90;;;4.23;;
44862;SDS011;30597;49.628;10.850;2023-05-02T07:43:38;4.90;;;4.50;;
44862;SDS011;30597;49.628;10.850;2023-05-02T07:46:04;4.07;;;3.73;;
44862;SDS011;30597;49.628;10.850;2023-05-02T07:48:30;5.73;;;3.97;;
44862;SDS011;30597;49.628;10.850;2023-05-02T07:51:04;7.23;;;3.70;;
44862;SDS011;30597;49.628;10.850;2023-05-02T07:53:30;7.13;;;4.37;;
44862;SDS011;30597;49.628;10.850;2023-05-02T07:55:58;5.57;;;4.57;;
44862;SDS011;30597;49.628;10.850;2023-05-02T07:58:24;4.90;;;4.50;;
44862;SDS011;30597;49.628;10.850;2023-05-02T08:00:49;5.47;;;4.70;;
44862;SDS011;30597;49.628;10.850;2023-05-02T08:03:16;5.50;;;4.90;;
44862;SDS011;30597;49.628;10.850;2023-05-02T08:05:42;8.30;;;4.80;;
44862;SDS011;30597;49.628;10.850;2023-05-02T08:08:10;3.97;;;3.67;;
44862;SDS011;30597;49.628;10.850;2023-05-02T08:10:36;4.90;;;4.17;;
44862;SDS011;30597;49.628;10.850;2023-05-02T08:13:01;7.23;;;4.10;;
44862;SDS011;30597;49.628;10.850;2023-05-02T08:15:27;4.57;;;4.13;;
44862;SDS011;30597;49.628;10.850;2023-05-02T08:17:55;6.03;;;4.00;;
44862;SDS011;30597;49.628;10.850;2023-05-02T08:20:21;5.40;;;4.60;;
44862;SDS011;30597;49.628;10.850;2023-05-02T08:22:46;5.03;;;4.53;;
44862;SDS011;30597;49.628;10.850;2023-05-02T08:25:13;4.37;;;4.07;;
44862;SDS011;30597;49.628;10.850;2023-05-02T08:27:38;4.83;;;3.90;;
44862;SDS011;30597;49.628;10.850;2023-05-02T08:30:04;4.50;;;4.10;;
44862;SDS011;30597;49.628;10.850;2023-05-02T08:32:31;4.43;;;4.03;;
44862;SDS011;30597;49.628;10.850;2023-05-02T08:34:59;5.03;;;4.30;;
44862;SDS011;30597;49.628;10.850;2023-05-02T08:37:29;4.17;;;3.83;;
44862;SDS011;30597;49.628;10.850;2023-05-02T08:39:56;6.03;;;4.17;;
44862;SDS011;30597;49.628;10.850;2023-05-02T08:42:22;4.03;;;3.63;;
